Time;durP1;ratioP1;P1;durP2;ratioP2;P2;SDS_P1;SDS_P2;PMS_P1;PMS_P2;Temp;Humidity;BMP_temperature;BMP_pressure;BME280_temperature;BME280_humidity;BME280_pressure;Samples;Min_cycle;Max_cycle;Signal;HPM_P1;HPM_P2
2023/05/08 07:44:02;;;;;;;4.35;4.05;;;;;;;;;;6010366;23;21076;-73
2023/05/08 07:46:27;;;;;;;4.68;4.28;;;;;;;;;;4936431;29;20044;-72
2023/05/08 08:17:27;;;;;;;4.10;3.80;;;;;;;;;;5002153;23;20060;-73
2023/05/08 08:19:52;;;;;;;3.80;3.50;;;;;;;;;;4936486;29;20031;-73
2023/05/08 08:22:18;;;;;;;3.38;3.17;;;;;;;;;;4936875;29;20106;-73
2023/05/08 08:24:43;;;;;;;3.85;3.55;;;;;;;;;;4936544;29;20036;-74
2023/05/08 08:27:09;;;;;;;3.70;3.40;;;;;;;;;;4936271;29;20035;-78
2023/05/08 08:29:34;;;;;;;4.13;3.50;;;;;;;;;;4936549;29;20036;-78
2023/05/08 08:32:02;;;;;;;3.67;3.35;;;;;;;;;;4936799;29;20474;-77
2023/05/08 08:34:27;;;;;;;3.78;3.15;;;;;;;;;;4936552;29;20375;-77
2023/05/08 08:36:53;;;;;;;4.80;3.30;;;;;;;;;;4936401;29;20027;-76
2023/05/08 08:39:18;;;;;;;3.22;3.00;;;;;;;;;;4936698;29;20035;-76
2023/05/08 08:41:43;;;;;;;3.40;3.20;;;;;;;;;;4936268;29;20027;-75
2023/05/08 08:44:09;;;;;;;3.25;3.05;;;;;;;;;;4936654;29;20114;-75
2023/05/08 08:46:42;;;;;;;3.90;3.30;;;;;;;;;;4936756;29;20055;-75
2023/05/08 08:49:09;;;;;;;3.40;3.10;;;;;;;;;;4936254;29;20047;-75
2023/05/08 08:51:57;;;;;;;2.85;2.65;;;;;;;;;;4936245;29;20031;-74
2023/05/08 08:54:23;;;;;;;3.63;3.22;;;;;;;;;;4935849;29;20087;-76
2023/05/08 08:56:50;;;;;;;3.10;2.90;;;;;;;;;;4936265;29;20056;-76
2023/05/08 08:59:17;;;;;;;4.82;3.42;;;;;;;;;;4936267;29;20028;-76
2023/05/08 09:01:52;;;;;;;4.65;3.03;;;;;;;;;;4936227;29;20027;-76
2023/05/08 09:04:18;;;;;;;7.78;6.30;;;;;;;;;;4936080;29;20451;-75
2023/05/08 09:06:44;;;;;;;5.93;5.43;;;;;;;;;;4936036;29;20110;-75
2023/05/08 09:09:12;;;;;;;3.20;2.90;;;;;;;;;;4936217;29;20058;-75
2023/05/08 09:11:39;;;;;;;2.90;2.70;;;;;;;;;;4936199;29;20471;-73
2023/05/08 09:14:04;;;;;;;2.60;2.40;;;;;;;;;;4918967;29;20078;-73
2023/05/08 09:16:30;;;;;;;3.38;2.38;;;;;;;;;;4936187;29;20115;-73
2023/05/08 09:18:55;;;;;;;3.25;2.35;;;;;;;;;;4935797;29;20557;-73
2023/05/08 09:21:22;;;;;;;2.60;2.40;;;;;;;;;;4935952;29;20109;-77
2023/05/08 09:23:57;;;;;;;2.65;2.45;;;;;;;;;;4936028;29;20490;-76
2023/05/08 09:26:33;;;;;;;2.90;2.50;;;;;;;;;;4919068;29;20032;-77
2023/05/08 09:29:16;;;;;;;2.50;2.30;;;;;;;;;;4936101;29;20114;-76
2023/05/08 09:31:49;;;;;;;2.28;2.17;;;;;;;;;;4939595;29;20086;-76
2023/05/08 09:34:32;;;;;;;2.65;2.45;;;;;;;;;;4939476;29;20024;-76
2023/05/08 09:37:11;;;;;;;2.47;2.28;;;;;;;;;;4939932;29;20028;-77
2023/05/08 09:39:42;;;;;;;2.80;2.60;;;;;;;;;;4939274;29;20028;-77
2023/05/08 09:42:07;;;;;;;2.90;2.70;;;;;;;;;;4939756;29;20035;-77
2023/05/08 09:45:02;;;;;;;2.60;2.40;;;;;;;;;;4939413;29;20032;-76
2023/05/08 09:47:27;;;;;;;2.70;2.50;;;;;;;;;;4919153;29;20039;-76
2023/05/08 09:50:05;;;;;;;2.70;2.50;;;;;;;;;;4939484;29;20345;-76
2023/05/08 09:52:32;;;;;;;2.63;2.42;;;;;;;;;;4939527;29;20043;-78
2023/05/08 09:54:59;;;;;;;2.72;2.40;;;;;;;;;;4939226;29;20028;-80
2023/05/08 09:57:27;;;;;;;3.08;2.88;;;;;;;;;;4922199;29;20035;-77
2023/05/08 10:00:11;;;;;;;3.90;3.58;;;;;;;;;;4939233;29;20020;-79
2023/05/08 10:02:38;;;;;;;3.75;3.47;;;;;;;;;;4922474;29;20036;-76
2023/05/08 10:05:20;;;;;;;4.00;3.70;;;;;;;;;;4938769;29;20039;-75
2023/05/08 10:07:46;;;;;;;4.03;3.72;;;;;;;;;;4939124;29;20344;-76
2023/05/08 10:10:11;;;;;;;5.38;4.88;;;;;;;;;;4939087;29;20030;-77
2023/05/08 10:12:39;;;;;;;5.40;4.90;;;;;;;;;;4939117;29;20028;-77
2023/05/08 10:15:05;;;;;;;5.35;4.85;;;;;;;;;;4938699;29;20039;-78
2023/05/08 10:17:41;;;;;;;5.13;4.63;;;;;;;;;;4938786;29;20059;-76
2023/05/08 10:20:07;;;;;;;5.10;4.60;;;;;;;;;;4939186;29;20114;-78
2023/05/08 10:22:37;;;;;;;5.30;4.80;;;;;;;;;;4938995;29;20055;-75
2023/05/08 10:25:06;;;;;;;4.65;4.25;;;;;;;;;;4921315;29;20475;-76
2023/05/08 10:27:43;;;;;;;;;;;;;;;;;;4939360;29;20035;-76
2023/05/08 10:30:10;;;;;;;8.98;8.07;;;;;;;;;;4938486;29;19914;-77
2023/05/08 10:32:42;;;;;;;7.05;5.85;;;;;;;;;;4938680;29;20028;-75
2023/05/08 10:35:09;;;;;;;8.60;6.22;;;;;;;;;;4938652;29;20035;-77
2023/05/08 10:37:36;;;;;;;7.43;5.35;;;;;;;;;;4938402;29;20062;-80
2023/05/08 10:40:03;;;;;;;6.68;6.07;;;;;;;;;;4938453;29;20028;-76
2023/05/08 10:42:30;;;;;;;7.30;6.60;;;;;;;;;;4937624;29;20039;-77
2023/05/08 10:44:56;;;;;;;7.65;6.85;;;;;;;;;;4938205;29;20039;-77
2023/05/08 10:47:39;;;;;;;6.68;6.07;;;;;;;;;;4938366;29;20075;-77
2023/05/08 10:50:38;;;;;;;8.45;6.63;;;;;;;;;;4938148;29;20027;-77
2023/05/08 10:53:03;;;;;;;7.37;6.67;;;;;;;;;;4938259;29;20083;-78
2023/05/08 10:55:36;;;;;;;7.40;6.70;;;;;;;;;;4938237;29;20027;-76
2023/05/08 10:58:08;;;;;;;6.65;5.88;;;;;;;;;;4938242;29;20046;-75
2023/05/08 11:00:51;;;;;;;7.57;6.72;;;;;;;;;;4938305;29;20036;-75
2023/05/08 11:03:23;;;;;;;7.65;6.60;;;;;;;;;;4937962;29;20031;-76
2023/05/08 11:05:50;;;;;;;6.47;5.88;;;;;;;;;;4938288;29;20063;-75
2023/05/08 11:08:24;;;;;;;7.07;6.38;;;;;;;;;;4938082;29;20031;-76
2023/05/08 11:11:01;;;;;;;7.43;6.22;;;;;;;;;;4937862;29;20027;-75
2023/05/08 11:13:53;;;;;;;7.18;5.40;;;;;;;;;;4938005;29;20031;-75
2023/05/08 11:16:53;;;;;;;4.78;4.35;;;;;;;;;;4938057;29;20039;-75
2023/05/08 11:19:26;;;;;;;4.10;3.78;;;;;;;;;;4937507;29;20126;-75
2023/05/08 11:22:11;;;;;;;4.70;3.63;;;;;;;;;;4938336;29;20024;-75
2023/05/08 11:24:38;;;;;;;4.70;4.30;;;;;;;;;;4937661;29;20035;-75
2023/05/08 11:27:03;;;;;;;3.95;3.58;;;;;;;;;;4937790;29;20040;-75
2023/05/08 11:29:29;;;;;;;5.20;3.42;;;;;;;;;;4937761;29;20030;-75
2023/05/08 11:31:55;;;;;;;4.07;3.67;;;;;;;;;;4937497;29;20424;-74
2023/05/08 11:34:42;;;;;;;4.72;4.32;;;;;;;;;;4937689;29;20058;-72
2023/05/08 11:37:15;;;;;;;4.20;3.80;;;;;;;;;;4937492;29;20024;-72
2023/05/08 11:39:40;;;;;;;4.90;3.83;;;;;;;;;;4937775;29;20067;-72
2023/05/08 11:42:35;;;;;;;5.10;4.53;;;;;;;;;;4937528;29;20031;-72
2023/05/08 11:45:08;;;;;;;6.13;4.50;;;;;;;;;;4916860;29;20039;-73
2023/05/08 17:06:06;;;;;;;6.60;5.88;;;;;;;;;;5052766;23;20059;-74
2023/05/08 17:08:32;;;;;;;5.47;4.90;;;;;;;;;;4936264;29;20055;-74
2023/05/08 17:10:58;;;;;;;4.82;4.18;;;;;;;;;;4936202;29;20432;-75
2023/05/08 17:13:23;;;;;;;5.20;4.70;;;;;;;;;;4936303;29;20470;-75
2023/05/08 17:15:49;;;;;;;7.85;4.43;;;;;;;;;;4936123;29;20074;-79
2023/05/08 17:18:14;;;;;;;4.88;4.30;;;;;;;;;;4936445;29;20023;-81
2023/05/08 17:20:41;;;;;;;6.78;4.57;;;;;;;;;;4938702;29;20061;-75
2023/05/08 17:23:07;;;;;;;7.70;4.38;;;;;;;;;;4934942;29;20036;-75
2023/05/08 17:25:33;;;;;;;6.00;4.80;;;;;;;;;;4936163;29;20024;-75
2023/05/08 17:28:00;;;;;;;6.32;5.10;;;;;;;;;;4936086;29;20032;-75
2023/05/08 17:30:26;;;;;;;5.00;4.30;;;;;;;;;;4936075;29;20114;-77
2023/05/08 17:32:51;;;;;;;5.18;4.75;;;;;;;;;;4936301;29;20446;-82
2023/05/08 17:35:17;;;;;;;4.72;4.30;;;;;;;;;;4936258;29;20031;-75
2023/05/08 17:37:43;;;;;;;4.68;4.25;;;;;;;;;;4936129;29;20493;-76
2023/05/08 17:40:09;;;;;;;4.88;4.47;;;;;;;;;;4936064;29;20032;-75
2023/05/08 17:42:34;;;;;;;5.15;4.65;;;;;;;;;;4918924;29;20034;-75
2023/05/08 17:45:00;;;;;;;5.85;4.80;;;;;;;;;;4935551;29;20371;-75
2023/05/08 17:47:26;;;;;;;5.25;4.65;;;;;;;;;;4935826;29;20039;-74
2023/05/08 17:49:51;;;;;;;5.20;4.70;;;;;;;;;;4936040;29;20036;-79
2023/05/08 17:52:17;;;;;;;4.93;4.50;;;;;;;;;;4939272;29;20475;-75
2023/05/08 17:54:42;;;;;;;4.60;4.20;;;;;;;;;;4939701;29;20031;-76
2023/05/08 17:57:07;;;;;;;5.75;4.47;;;;;;;;;;4939395;29;20039;-75
2023/05/08 17:59:33;;;;;;;4.95;4.55;;;;;;;;;;4939367;29;20035;-75
2023/05/08 18:01:58;;;;;;;5.03;4.50;;;;;;;;;;4939269;29;20031;-75
2023/05/08 18:04:25;;;;;;;8.15;4.82;;;;;;;;;;4939540;29;20074;-76
2023/05/08 18:06:50;;;;;;;4.70;4.20;;;;;;;;;;4939117;29;20051;-75
2023/05/08 18:09:16;;;;;;;4.90;4.30;;;;;;;;;;4939123;29;20114;-75
2023/05/08 18:11:41;;;;;;;4.78;4.38;;;;;;;;;;4939068;29;20115;-81
2023/05/08 18:14:07;;;;;;;5.40;4.90;;;;;;;;;;4938947;29;20091;-75
2023/05/08 18:16:32;;;;;;;5.10;4.70;;;;;;;;;;4939040;29;20489;-75
2023/05/08 18:18:58;;;;;;;5.40;4.90;;;;;;;;;;4938788;29;20051;-74
2023/05/08 18:21:23;;;;;;;4.80;4.40;;;;;;;;;;4939063;29;20027;-75
2023/05/08 18:23:49;;;;;;;5.50;5.00;;;;;;;;;;4938886;29;20126;-75
2023/05/08 18:26:15;;;;;;;6.05;4.68;;;;;;;;;;4938912;29;20082;-76
2023/05/08 18:28:42;;;;;;;4.78;4.38;;;;;;;;;;4938863;29;20035;-80
2023/05/08 18:31:07;;;;;;;5.13;4.63;;;;;;;;;;4938766;29;20023;-77
2023/05/08 18:33:33;;;;;;;5.13;4.45;;;;;;;;;;4938781;29;20376;-78
2023/05/08 18:35:58;;;;;;;5.28;4.88;;;;;;;;;;4938754;29;20035;-84
2023/05/08 18:38:23;;;;;;;5.30;4.80;;;;;;;;;;4938943;29;20032;-85
2023/05/08 18:40:49;;;;;;;5.07;4.68;;;;;;;;;;4938677;29;20035;-76
2023/05/08 18:43:14;;;;;;;5.10;4.50;;;;;;;;;;4938404;29;20443;-83
2023/05/08 18:45:40;;;;;;;6.40;4.70;;;;;;;;;;4921357;29;20502;-84
2023/05/08 18:48:09;;;;;;;5.35;4.75;;;;;;;;;;4938580;29;20028;-82
2023/05/08 18:50:35;;;;;;;5.40;4.65;;;;;;;;;;4938581;29;20031;-83
2023/05/08 18:53:00;;;;;;;5.07;4.57;;;;;;;;;;4938343;29;20031;-76
2023/05/08 18:55:26;;;;;;;5.00;4.60;;;;;;;;;;4938206;29;20035;-77
2023/05/08 18:57:53;;;;;;;6.85;4.75;;;;;;;;;;4938335;29;20401;-76
2023/05/08 19:00:18;;;;;;;5.25;4.85;;;;;;;;;;4938791;29;20032;-77
2023/05/08 19:02:44;;;;;;;5.88;5.28;;;;;;;;;;4937290;29;20059;-79
2023/05/08 19:05:10;;;;;;;5.38;4.88;;;;;;;;;;4938024;29;20031;-79
2023/05/08 19:07:35;;;;;;;5.65;5.25;;;;;;;;;;4938297;29;20055;-79
2023/05/08 19:10:01;;;;;;;5.53;5.05;;;;;;;;;;4938351;29;20117;-81
2023/05/08 19:12:26;;;;;;;6.15;4.80;;;;;;;;;;4938098;29;20036;-77
2023/05/08 19:14:53;;;;;;;5.70;5.07;;;;;;;;;;4938161;29;20035;-83
2023/05/08 19:17:19;;;;;;;6.68;5.55;;;;;;;;;;4947741;29;20028;-84
2023/05/08 19:19:45;;;;;;;6.25;5.38;;;;;;;;;;4949477;29;20459;-85
2023/05/08 19:22:10;;;;;;;6.45;5.40;;;;;;;;;;4938967;29;20028;-87
2023/05/08 19:24:36;;;;;;;6.85;5.22;;;;;;;;;;4938009;29;20489;-76
2023/05/08 19:27:01;;;;;;;7.63;5.63;;;;;;;;;;4937707;29;20028;-76
2023/05/08 19:29:27;;;;;;;6.72;5.82;;;;;;;;;;4937826;29;20473;-76
2023/05/08 19:31:52;;;;;;;5.95;5.35;;;;;;;;;;4937597;29;20104;-79
2023/05/08 19:34:18;;;;;;;5.68;5.18;;;;;;;;;;4937843;29;20036;-75
2023/05/08 19:36:43;;;;;;;8.68;5.85;;;;;;;;;;4937706;29;20028;-77
2023/05/08 19:39:08;;;;;;;5.70;5.10;;;;;;;;;;4937723;29;20051;-76
2023/05/08 19:41:34;;;;;;;6.43;5.90;;;;;;;;;;4937482;29;20075;-76
2023/05/08 19:43:59;;;;;;;6.95;5.85;;;;;;;;;;4937289;29;20028;-76
2023/05/08 19:46:25;;;;;;;7.63;6.03;;;;;;;;;;4937786;29;20103;-76
2023/05/08 19:48:50;;;;;;;6.25;5.50;;;;;;;;;;4937412;29;20078;-82
2023/05/08 19:51:16;;;;;;;6.85;5.95;;;;;;;;;;4937429;29;20024;-79
2023/05/08 19:53:41;;;;;;;6.78;6.13;;;;;;;;;;4937201;29;20039;-77
2023/05/08 19:56:07;;;;;;;6.65;5.95;;;;;;;;;;4937463;29;20030;-82
2023/05/08 19:58:33;;;;;;;6.15;5.57;;;;;;;;;;4937118;29;20489;-76
2023/05/08 20:00:58;;;;;;;6.35;5.75;;;;;;;;;;4937201;29;20091;-76
2023/05/08 20:03:24;;;;;;;6.05;5.30;;;;;;;;;;4937050;29;20030;-76
2023/05/08 20:05:51;;;;;;;6.88;5.82;;;;;;;;;;4937114;29;20086;-82
2023/05/08 20:08:16;;;;;;;5.82;5.25;;;;;;;;;;4937071;29;20481;-77
2023/05/08 20:10:42;;;;;;;6.20;5.60;;;;;;;;;;4937112;29;20035;-80
2023/05/08 20:13:07;;;;;;;6.43;5.82;;;;;;;;;;4936567;29;20119;-83
2023/05/08 20:15:33;;;;;;;5.80;5.30;;;;;;;;;;4936748;29;20066;-77
2023/05/08 20:17:58;;;;;;;6.07;5.38;;;;;;;;;;4937259;29;20110;-76
2023/05/08 20:20:26;;;;;;;5.60;5.10;;;;;;;;;;4936793;29;20031;-76
2023/05/08 20:22:51;;;;;;;6.60;5.85;;;;;;;;;;4936932;29;20062;-77
2023/05/08 20:25:17;;;;;;;6.03;5.53;;;;;;;;;;4936484;29;20024;-84
2023/05/08 20:27:42;;;;;;;6.28;5.63;;;;;;;;;;4936703;29;20031;-76
2023/05/08 20:30:08;;;;;;;6.20;5.68;;;;;;;;;;4936981;29;20027;-76
2023/05/08 20:32:33;;;;;;;5.93;5.43;;;;;;;;;;4919834;29;20032;-76
2023/05/08 20:34:59;;;;;;;7.13;6.00;;;;;;;;;;4936680;29;20036;-76
2023/05/08 20:37:24;;;;;;;6.95;6.25;;;;;;;;;;4936626;29;20509;-76
2023/05/08 20:39:49;;;;;;;7.22;6.30;;;;;;;;;;4936611;29;20035;-75
2023/05/08 20:42:15;;;;;;;7.55;6.30;;;;;;;;;;4936547;29;20062;-76
2023/05/08 20:44:40;;;;;;;7.70;6.30;;;;;;;;;;4936588;29;20031;-76
2023/05/08 20:47:06;;;;;;;7.88;7.10;;;;;;;;;;4936700;29;20035;-84
2023/05/08 20:49:31;;;;;;;9.70;8.10;;;;;;;;;;4936525;29;20405;-76
2023/05/08 20:51:57;;;;;;;8.45;7.63;;;;;;;;;;4947636;29;20051;-82
2023/05/08 20:54:22;;;;;;;7.57;6.78;;;;;;;;;;4955723;28;20031;-76
2023/05/08 20:56:47;;;;;;;7.43;6.40;;;;;;;;;;4955592;29;20102;-76
2023/05/08 20:59:15;;;;;;;8.57;7.20;;;;;;;;;;4956269;29;20050;-75
2023/05/08 21:01:41;;;;;;;7.55;6.72;;;;;;;;;;4955612;29;20023;-76
2023/05/08 21:04:06;;;;;;;6.88;6.18;;;;;;;;;;4955328;28;20050;-76
2023/05/08 21:06:32;;;;;;;6.13;5.60;;;;;;;;;;4955442;29;20387;-81
2023/05/08 21:08:57;;;;;;;7.15;6.43;;;;;;;;;;4955432;29;20035;-75
2023/05/08 21:11:22;;;;;;;7.20;6.53;;;;;;;;;;4955573;29;20027;-75
2023/05/08 21:13:48;;;;;;;6.90;6.10;;;;;;;;;;4955373;28;20438;-76
2023/05/08 21:16:13;;;;;;;6.97;6.38;;;;;;;;;;4955550;29;20591;-77
2023/05/08 21:18:39;;;;;;;8.68;6.68;;;;;;;;;;4955131;29;20027;-84
2023/05/08 21:21:14;;;;;;;8.13;6.53;;;;;;;;;;4955365;29;20485;-75
2023/05/08 21:23:39;;;;;;;7.20;6.50;;;;;;;;;;4955471;28;20031;-83
2023/05/08 21:26:05;;;;;;;7.20;6.57;;;;;;;;;;4957325;28;20027;-83
2023/05/08 21:28:30;;;;;;;7.93;6.60;;;;;;;;;;4958993;29;20144;-75
2023/05/08 21:30:55;;;;;;;6.97;6.22;;;;;;;;;;4959210;29;20106;-75
2023/05/08 21:33:21;;;;;;;6.30;5.70;;;;;;;;;;4959042;28;20033;-75
2023/05/08 21:35:47;;;;;;;6.18;5.60;;;;;;;;;;4959088;29;20051;-76
2023/05/08 21:38:12;;;;;;;6.40;5.85;;;;;;;;;;4958767;29;20106;-78
2023/05/08 21:40:38;;;;;;;6.35;5.75;;;;;;;;;;4959079;29;20034;-76
2023/05/08 21:43:03;;;;;;;6.40;5.80;;;;;;;;;;4959024;28;20034;-75
2023/05/08 21:45:30;;;;;;;6.20;5.60;;;;;;;;;;4958768;29;20062;-83
2023/05/08 21:47:56;;;;;;;5.97;5.47;;;;;;;;;;4958784;29;20019;-75
2023/05/08 21:50:21;;;;;;;6.03;5.53;;;;;;;;;;4958610;29;20039;-75
2023/05/08 21:52:47;;;;;;;6.13;5.63;;;;;;;;;;4958733;28;20074;-75
2023/05/08 21:55:13;;;;;;;6.68;5.40;;;;;;;;;;4958679;29;20391;-75
2023/05/08 21:57:38;;;;;;;5.68;5.18;;;;;;;;;;4959244;29;20024;-83
2023/05/08 22:00:06;;;;;;;6.50;5.05;;;;;;;;;;4958016;29;20493;-83
2023/05/08 22:02:31;;;;;;;5.72;5.22;;;;;;;;;;4958453;28;20023;-76
2023/05/08 22:04:57;;;;;;;5.93;5.03;;;;;;;;;;4958261;29;20034;-75
2023/05/08 22:07:22;;;;;;;5.75;5.15;;;;;;;;;;4958478;29;20047;-75
2023/05/08 22:09:48;;;;;;;7.05;5.65;;;;;;;;;;4937842;29;20042;-78
